sensor_id;sensor_type;location;lat;lon;timestamp;temperature;humidity
22450;DHT22;11392;57.390;-2.468;2022-08-21T00:01:42;11.00;99.90
22450;DHT22;11392;57.390;-2.468;2022-08-21T00:04:10;11.10;99.90
22450;DHT22;11392;57.390;-2.468;2022-08-21T00:06:46;11.20;99.90
22450;DHT22;11392;57.390;-2.468;2022-08-21T00:09:13;11.20;99.90
22450;DHT22;11392;57.390;-2.468;2022-08-21T00:11:40;11.30;99.90
22450;DHT22;11392;57.390;-2.468;2022-08-21T00:14:09;11.40;99.90
22450;DHT22;11392;57.390;-2.468;2022-08-21T00:16:36;11.30;99.90
22450;DHT22;11392;57.390;-2.468;2022-08-21T00:19:03;11.20;99.90
22450;DHT22;11392;57.390;-2.468;2022-08-21T00:21:30;11.00;99.90
22450;DHT22;11392;57.390;-2.468;2022-08-21T00:23:58;11.00;99.90
22450;DHT22;11392;57.390;-2.468;2022-08-21T00:26:25;10.90;99.90
22450;DHT22;11392;57.390;-2.468;2022-08-21T00:28:53;10.80;99.90
22450;DHT22;11392;57.390;-2.468;2022-08-21T00:31:21;10.80;99.90
22450;DHT22;11392;57.390;-2.468;2022-08-21T00:33:48;10.80;99.90
22450;DHT22;11392;57.390;-2.468;2022-08-21T00:36:15;10.80;99.90
22450;DHT22;11392;57.390;-2.468;2022-08-21T00:38:42;10.70;99.90
22450;DHT22;11392;57.390;-2.468;2022-08-21T00:41:11;10.70;99.90
22450;DHT22;11392;57.390;-2.468;2022-08-21T00:43:58;10.70;99.90
22450;DHT22;11392;57.390;-2.468;2022-08-21T00:46:25;10.70;99.90
22450;DHT22;11392;57.390;-2.468;2022-08-21T00:48:54;10.70;99.90
22450;DHT22;11392;57.390;-2.468;2022-08-21T00:51:48;10.70;99.90
22450;DHT22;11392;57.390;-2.468;2022-08-21T00:54:17;10.70;99.90
22450;DHT22;11392;57.390;-2.468;2022-08-21T00:56:51;10.70;99.90
22450;DHT22;11392;57.390;-2.468;2022-08-21T00:59:21;10.70;99.90
22450;DHT22;11392;57.390;-2.468;2022-08-21T01:01:49;10.70;99.90
22450;DHT22;11392;57.390;-2.468;2022-08-21T01:04:17;10.60;99.90
22450;DHT22;11392;57.390;-2.468;2022-08-21T01:06:44;10.70;99.90
22450;DHT22;11392;57.390;-2.468;2022-08-21T01:09:12;10.70;99.90
22450;DHT22;11392;57.390;-2.468;2022-08-21T01:12:32;10.80;99.90
22450;DHT22;11392;57.390;-2.468;2022-08-21T01:15:01;10.80;99.90
22450;DHT22;11392;57.390;-2.468;2022-08-21T01:17:29;10.70;99.90
22450;DHT22;11392;57.390;-2.468;2022-08-21T01:19:58;10.60;99.90
22450;DHT22;11392;57.390;-2.468;2022-08-21T01:22:26;10.50;99.90
22450;DHT22;11392;57.390;-2.468;2022-08-21T01:24:54;10.50;99.90
22450;DHT22;11392;57.390;-2.468;2022-08-21T01:27:21;10.50;99.90
22450;DHT22;11392;57.390;-2.468;2022-08-21T01:29:53;10.50;99.90
22450;DHT22;11392;57.390;-2.468;2022-08-21T01:32:21;10.50;99.90
22450;DHT22;11392;57.390;-2.468;2022-08-21T01:34:50;10.50;99.90
22450;DHT22;11392;57.390;-2.468;2022-08-21T01:37:19;10.50;99.90
22450;DHT22;11392;57.390;-2.468;2022-08-21T01:39:46;10.40;99.90
22450;DHT22;11392;57.390;-2.468;2022-08-21T01:42:14;10.40;99.90
22450;DHT22;11392;57.390;-2.468;2022-08-21T01:44:41;10.40;99.90
22450;DHT22;11392;57.390;-2.468;2022-08-21T01:47:11;10.30;99.90
22450;DHT22;11392;57.390;-2.468;2022-08-21T01:49:39;10.30;99.90
22450;DHT22;11392;57.390;-2.468;2022-08-21T01:52:07;10.20;99.90
22450;DHT22;11392;57.390;-2.468;2022-08-21T01:54:36;10.20;99.90
22450;DHT22;11392;57.390;-2.468;2022-08-21T01:57:04;10.20;99.90
22450;DHT22;11392;57.390;-2.468;2022-08-21T01:59:31;10.20;99.90
22450;DHT22;11392;57.390;-2.468;2022-08-21T02:01:59;10.10;99.90
22450;DHT22;11392;57.390;-2.468;2022-08-21T02:04:26;10.00;99.90
22450;DHT22;11392;57.390;-2.468;2022-08-21T02:06:53;9.80;99.90
22450;DHT22;11392;57.390;-2.468;2022-08-21T02:09:20;9.80;99.90
22450;DHT22;11392;57.390;-2.468;2022-08-21T02:11:50;9.80;99.90
22450;DHT22;11392;57.390;-2.468;2022-08-21T02:14:18;9.90;99.90
22450;DHT22;11392;57.390;-2.468;2022-08-21T02:16:59;9.80;99.90
22450;DHT22;11392;57.390;-2.468;2022-08-21T02:19:35;9.70;99.90
22450;DHT22;11392;57.390;-2.468;2022-08-21T02:22:08;9.70;99.90
22450;DHT22;11392;57.390;-2.468;2022-08-21T02:24:37;9.70;99.90
22450;DHT22;11392;57.390;-2.468;2022-08-21T02:27:22;9.60;99.90
22450;DHT22;11392;57.390;-2.468;2022-08-21T02:29:53;9.60;99.90
22450;DHT22;11392;57.390;-2.468;2022-08-21T02:32:20;9.50;99.90
22450;DHT22;11392;57.390;-2.468;2022-08-21T02:34:48;9.50;99.90
22450;DHT22;11392;57.390;-2.468;2022-08-21T02:37:15;9.50;99.90
22450;DHT22;11392;57.390;-2.468;2022-08-21T02:39:42;9.50;99.90
22450;DHT22;11392;57.390;-2.468;2022-08-21T02:42:10;9.40;99.90
22450;DHT22;11392;57.390;-2.468;2022-08-21T02:44:37;9.40;99.90
22450;DHT22;11392;57.390;-2.468;2022-08-21T02:47:04;9.40;99.90
22450;DHT22;11392;57.390;-2.468;2022-08-21T02:49:31;9.40;99.90
22450;DHT22;11392;57.390;-2.468;2022-08-21T02:51:58;9.40;99.90
22450;DHT22;11392;57.390;-2.468;2022-08-21T02:54:25;9.40;99.90
22450;DHT22;11392;57.390;-2.468;2022-08-21T02:56:52;9.50;99.90
22450;DHT22;11392;57.390;-2.468;2022-08-21T02:59:19;9.50;99.90
22450;DHT22;11392;57.390;-2.468;2022-08-21T03:01:46;9.40;99.90
22450;DHT22;11392;57.390;-2.468;2022-08-21T03:04:13;9.50;99.90
22450;DHT22;11392;57.390;-2.468;2022-08-21T03:06:40;9.50;99.90
22450;DHT22;11392;57.390;-2.468;2022-08-21T03:09:07;9.50;99.90
22450;DHT22;11392;57.390;-2.468;2022-08-21T03:11:34;9.50;99.90
22450;DHT22;11392;57.390;-2.468;2022-08-21T03:14:03;9.50;99.90
22450;DHT22;11392;57.390;-2.468;2022-08-21T03:16:31;9.50;99.90
22450;DHT22;11392;57.390;-2.468;2022-08-21T03:19:01;9.50;99.90
22450;DHT22;11392;57.390;-2.468;2022-08-21T03:21:29;9.50;99.90
22450;DHT22;11392;57.390;-2.468;2022-08-21T03:23:55;9.60;99.90
22450;DHT22;11392;57.390;-2.468;2022-08-21T03:26:22;9.70;99.90
22450;DHT22;11392;57.390;-2.468;2022-08-21T03:28:50;9.70;99.90
22450;DHT22;11392;57.390;-2.468;2022-08-21T03:31:18;9.70;99.90
22450;DHT22;11392;57.390;-2.468;2022-08-21T03:33:45;9.80;99.90
22450;DHT22;11392;57.390;-2.468;2022-08-21T03:36:12;9.80;99.90
22450;DHT22;11392;57.390;-2.468;2022-08-21T03:38:39;9.90;99.90
22450;DHT22;11392;57.390;-2.468;2022-08-21T03:41:07;9.90;99.90
22450;DHT22;11392;57.390;-2.468;2022-08-21T03:43:35;10.10;99.90
22450;DHT22;11392;57.390;-2.468;2022-08-21T03:46:04;10.20;99.90
22450;DHT22;11392;57.390;-2.468;2022-08-21T03:48:33;10.30;99.90
22450;DHT22;11392;57.390;-2.468;2022-08-21T03:51:01;10.40;99.90
22450;DHT22;11392;57.390;-2.468;2022-08-21T03:53:28;10.40;99.90
22450;DHT22;11392;57.390;-2.468;2022-08-21T03:55:56;10.40;99.90
22450;DHT22;11392;57.390;-2.468;2022-08-21T03:58:25;10.40;99.90
22450;DHT22;11392;57.390;-2.468;2022-08-21T04:00:55;10.50;99.90
22450;DHT22;11392;57.390;-2.468;2022-08-21T04:03:24;10.60;99.90
22450;DHT22;11392;57.390;-2.468;2022-08-21T04:05:51;10.60;99.90
22450;DHT22;11392;57.390;-2.468;2022-08-21T04:08:18;10.70;99.90
22450;DHT22;11392;57.390;-2.468;2022-08-21T04:10:48;10.70;99.90
22450;DHT22;11392;57.390;-2.468;2022-08-21T04:13:16;10.70;99.90
22450;DHT22;11392;57.390;-2.468;2022-08-21T04:15:43;10.60;99.90
22450;DHT22;11392;57.390;-2.468;2022-08-21T04:18:10;10.60;99.90
22450;DHT22;11392;57.390;-2.468;2022-08-21T04:20:38;10.50;99.90
22450;DHT22;11392;57.390;-2.468;2022-08-21T04:23:06;10.50;99.90
22450;DHT22;11392;57.390;-2.468;2022-08-21T04:25:33;10.50;99.90
22450;DHT22;11392;57.390;-2.468;2022-08-21T04:28:00;10.50;99.90
22450;DHT22;11392;57.390;-2.468;2022-08-21T04:30:28;10.50;99.90
22450;DHT22;11392;57.390;-2.468;2022-08-21T04:32:57;10.50;99.90
22450;DHT22;11392;57.390;-2.468;2022-08-21T04:35:27;10.50;99.90
22450;DHT22;11392;57.390;-2.468;2022-08-21T04:37:54;10.50;99.90
22450;DHT22;11392;57.390;-2.468;2022-08-21T04:40:23;10.40;99.90
22450;DHT22;11392;57.390;-2.468;2022-08-21T04:42:55;10.40;99.90
22450;DHT22;11392;57.390;-2.468;2022-08-21T04:45:27;10.50;99.90
22450;DHT22;11392;57.390;-2.468;2022-08-21T04:47:57;10.40;99.90
22450;DHT22;11392;57.390;-2.468;2022-08-21T04:50:47;10.40;99.90
22450;DHT22;11392;57.390;-2.468;2022-08-21T04:53:22;10.40;99.90
22450;DHT22;11392;57.390;-2.468;2022-08-21T04:55:50;10.40;99.90
22450;DHT22;11392;57.390;-2.468;2022-08-21T04:58:20;10.40;99.90
22450;DHT22;11392;57.390;-2.468;2022-08-21T05:00:48;10.40;99.90
22450;DHT22;11392;57.390;-2.468;2022-08-21T05:03:16;10.40;99.90
22450;DHT22;11392;57.390;-2.468;2022-08-21T05:05:44;10.40;99.90
22450;DHT22;11392;57.390;-2.468;2022-08-21T05:08:17;10.30;99.90
22450;DHT22;11392;57.390;-2.468;2022-08-21T05:10:45;10.30;99.90
22450;DHT22;11392;57.390;-2.468;2022-08-21T05:13:13;10.30;99.90
22450;DHT22;11392;57.390;-2.468;2022-08-21T05:15:40;10.30;99.90
22450;DHT22;11392;57.390;-2.468;2022-08-21T05:18:08;10.30;99.90
22450;DHT22;11392;57.390;-2.468;2022-08-21T05:20:36;10.30;99.90
22450;DHT22;11392;57.390;-2.468;2022-08-21T05:23:11;10.30;99.90
22450;DHT22;11392;57.390;-2.468;2022-08-21T05:25:40;10.30;99.90
22450;DHT22;11392;57.390;-2.468;2022-08-21T05:28:08;10.20;99.90
22450;DHT22;11392;57.390;-2.468;2022-08-21T05:30:35;10.20;99.90
22450;DHT22;11392;57.390;-2.468;2022-08-21T05:33:05;10.20;99.90
22450;DHT22;11392;57.390;-2.468;2022-08-21T05:35:33;10.20;99.90
22450;DHT22;11392;57.390;-2.468;2022-08-21T05:38:00;10.20;99.90
22450;DHT22;11392;57.390;-2.468;2022-08-21T05:40:27;10.10;99.90
22450;DHT22;11392;57.390;-2.468;2022-08-21T05:42:55;10.10;99.90
22450;DHT22;11392;57.390;-2.468;2022-08-21T05:45:25;10.00;99.90
22450;DHT22;11392;57.390;-2.468;2022-08-21T05:48:14;9.90;99.90
22450;DHT22;11392;57.390;-2.468;2022-08-21T05:50:43;9.90;99.90
22450;DHT22;11392;57.390;-2.468;2022-08-21T05:53:11;10.00;99.90
22450;DHT22;11392;57.390;-2.468;2022-08-21T05:55:38;10.10;99.90
22450;DHT22;11392;57.390;-2.468;2022-08-21T05:58:13;10.10;99.90
22450;DHT22;11392;57.390;-2.468;2022-08-21T06:00:41;10.20;99.90
22450;DHT22;11392;57.390;-2.468;2022-08-21T06:03:17;10.20;99.90
22450;DHT22;11392;57.390;-2.468;2022-08-21T06:05:45;10.20;99.90
22450;DHT22;11392;57.390;-2.468;2022-08-21T06:08:14;10.30;99.90
22450;DHT22;11392;57.390;-2.468;2022-08-21T06:10:41;10.50;99.90
22450;DHT22;11392;57.390;-2.468;2022-08-21T06:13:08;10.70;99.90
22450;DHT22;11392;57.390;-2.468;2022-08-21T06:15:35;10.90;99.90
22450;DHT22;11392;57.390;-2.468;2022-08-21T06:18:02;11.10;99.90
22450;DHT22;11392;57.390;-2.468;2022-08-21T06:20:29;11.10;99.90
22450;DHT22;11392;57.390;-2.468;2022-08-21T06:22:56;11.30;99.90
22450;DHT22;11392;57.390;-2.468;2022-08-21T06:25:24;11.40;99.90
22450;DHT22;11392;57.390;-2.468;2022-08-21T06:27:51;11.60;99.90
22450;DHT22;11392;57.390;-2.468;2022-08-21T06:30:18;11.80;99.90
22450;DHT22;11392;57.390;-2.468;2022-08-21T06:32:45;11.90;99.90
22450;DHT22;11392;57.390;-2.468;2022-08-21T06:35:12;12.10;99.90
22450;DHT22;11392;57.390;-2.468;2022-08-21T06:37:39;12.20;99.90
22450;DHT22;11392;57.390;-2.468;2022-08-21T06:40:07;12.40;99.90
22450;DHT22;11392;57.390;-2.468;2022-08-21T06:42:38;12.60;99.90
22450;DHT22;11392;57.390;-2.468;2022-08-21T06:45:09;12.70;99.90
22450;DHT22;11392;57.390;-2.468;2022-08-21T06:47:36;12.90;99.90
22450;DHT22;11392;57.390;-2.468;2022-08-21T06:50:03;13.10;99.90
22450;DHT22;11392;57.390;-2.468;2022-08-21T06:52:31;13.30;99.90
22450;DHT22;11392;57.390;-2.468;2022-08-21T06:54:58;13.60;99.90
22450;DHT22;11392;57.390;-2.468;2022-08-21T06:57:25;13.60;99.90
22450;DHT22;11392;57.390;-2.468;2022-08-21T06:59:52;13.70;99.90
22450;DHT22;11392;57.390;-2.468;2022-08-21T07:02:19;13.80;99.90
22450;DHT22;11392;57.390;-2.468;2022-08-21T07:04:46;14.00;99.90
22450;DHT22;11392;57.390;-2.468;2022-08-21T07:07:13;14.10;99.90
22450;DHT22;11392;57.390;-2.468;2022-08-21T07:09:40;14.30;99.90
22450;DHT22;11392;57.390;-2.468;2022-08-21T07:12:07;14.40;99.90
22450;DHT22;11392;57.390;-2.468;2022-08-21T07:14:35;14.50;99.90
22450;DHT22;11392;57.390;-2.468;2022-08-21T07:17:02;14.80;99.90
22450;DHT22;11392;57.390;-2.468;2022-08-21T07:19:29;14.90;99.90
22450;DHT22;11392;57.390;-2.468;2022-08-21T07:21:59;14.70;99.90
22450;DHT22;11392;57.390;-2.468;2022-08-21T07:24:27;14.90;99.90
22450;DHT22;11392;57.390;-2.468;2022-08-21T07:26:54;15.10;99.90
22450;DHT22;11392;57.390;-2.468;2022-08-21T07:29:21;15.00;99.90
22450;DHT22;11392;57.390;-2.468;2022-08-21T07:31:47;15.00;99.90
22450;DHT22;11392;57.390;-2.468;2022-08-21T07:34:16;14.80;99.90
22450;DHT22;11392;57.390;-2.468;2022-08-21T07:36:43;14.70;99.90
22450;DHT22;11392;57.390;-2.468;2022-08-21T07:39:10;14.50;99.90
22450;DHT22;11392;57.390;-2.468;2022-08-21T07:41:37;14.40;99.90
22450;DHT22;11392;57.390;-2.468;2022-08-21T07:44:04;14.30;99.90
22450;DHT22;11392;57.390;-2.468;2022-08-21T07:46:32;14.20;99.90
22450;DHT22;11392;57.390;-2.468;2022-08-21T07:48:59;14.10;99.90
22450;DHT22;11392;57.390;-2.468;2022-08-21T07:51:27;14.00;99.90
22450;DHT22;11392;57.390;-2.468;2022-08-21T07:53:57;13.90;99.90
22450;DHT22;11392;57.390;-2.468;2022-08-21T07:56:26;13.90;99.90
22450;DHT22;11392;57.390;-2.468;2022-08-21T07:58:54;14.10;99.90
22450;DHT22;11392;57.390;-2.468;2022-08-21T08:01:21;14.10;99.90
22450;DHT22;11392;57.390;-2.468;2022-08-21T08:03:48;14.10;99.90
22450;DHT22;11392;57.390;-2.468;2022-08-21T08:06:16;14.20;99.90
22450;DHT22;11392;57.390;-2.468;2022-08-21T08:08:45;14.80;99.90
22450;DHT22;11392;57.390;-2.468;2022-08-21T08:11:13;15.40;99.90
22450;DHT22;11392;57.390;-2.468;2022-08-21T08:13:48;15.70;99.90
22450;DHT22;11392;57.390;-2.468;2022-08-21T08:16:16;15.70;99.90
22450;DHT22;11392;57.390;-2.468;2022-08-21T08:18:43;15.70;99.90
22450;DHT22;11392;57.390;-2.468;2022-08-21T08:21:12;15.80;99.90
22450;DHT22;11392;57.390;-2.468;2022-08-21T08:23:39;16.40;99.90
22450;DHT22;11392;57.390;-2.468;2022-08-21T08:26:06;16.80;99.90
22450;DHT22;11392;57.390;-2.468;2022-08-21T08:28:33;16.50;99.90
22450;DHT22;11392;57.390;-2.468;2022-08-21T08:31:01;16.80;99.90
22450;DHT22;11392;57.390;-2.468;2022-08-21T08:33:28;16.90;99.90
22450;DHT22;11392;57.390;-2.468;2022-08-21T08:35:55;17.00;99.90
22450;DHT22;11392;57.390;-2.468;2022-08-21T08:38:24;17.60;99.90
22450;DHT22;11392;57.390;-2.468;2022-08-21T08:41:08;17.90;99.90
22450;DHT22;11392;57.390;-2.468;2022-08-21T08:43:40;17.90;99.90
22450;DHT22;11392;57.390;-2.468;2022-08-21T08:46:13;17.50;99.90
22450;DHT22;11392;57.390;-2.468;2022-08-21T08:48:53;17.10;99.90
22450;DHT22;11392;57.390;-2.468;2022-08-21T08:51:41;16.60;99.90
22450;DHT22;11392;57.390;-2.468;2022-08-21T08:54:13;16.40;99.90
22450;DHT22;11392;57.390;-2.468;2022-08-21T08:56:42;16.10;99.90
22450;DHT22;11392;57.390;-2.468;2022-08-21T08:59:26;15.90;99.90
22450;DHT22;11392;57.390;-2.468;2022-08-21T09:01:56;16.40;99.90
22450;DHT22;11392;57.390;-2.468;2022-08-21T09:04:25;17.20;99.90
22450;DHT22;11392;57.390;-2.468;2022-08-21T09:12:18;18.60;99.90
22450;DHT22;11392;57.390;-2.468;2022-08-21T09:14:54;19.10;99.90
22450;DHT22;11392;57.390;-2.468;2022-08-21T09:23:40;19.60;99.90
22450;DHT22;11392;57.390;-2.468;2022-08-21T09:26:19;19.20;99.90
22450;DHT22;11392;57.390;-2.468;2022-08-21T09:28:55;19.60;99.90
22450;DHT22;11392;57.390;-2.468;2022-08-21T09:31:31;19.60;99.90
22450;DHT22;11392;57.390;-2.468;2022-08-21T09:34:05;19.40;99.90
22450;DHT22;11392;57.390;-2.468;2022-08-21T09:39:09;19.90;99.90
22450;DHT22;11392;57.390;-2.468;2022-08-21T09:41:39;19.90;99.90
22450;DHT22;11392;57.390;-2.468;2022-08-21T09:44:08;20.00;99.90
22450;DHT22;11392;57.390;-2.468;2022-08-21T09:46:35;20.40;99.90
22450;DHT22;11392;57.390;-2.468;2022-08-21T09:49:04;20.50;99.90
22450;DHT22;11392;57.390;-2.468;2022-08-21T09:51:50;20.60;99.90
22450;DHT22;11392;57.390;-2.468;2022-08-21T09:54:18;21.10;99.90
22450;DHT22;11392;57.390;-2.468;2022-08-21T09:56:58;21.20;99.90
22450;DHT22;11392;57.390;-2.468;2022-08-21T09:59:45;21.00;99.90
22450;DHT22;11392;57.390;-2.468;2022-08-21T10:04:55;21.70;99.90
22450;DHT22;11392;57.390;-2.468;2022-08-21T10:07:24;22.00;99.90
22450;DHT22;11392;57.390;-2.468;2022-08-21T10:12:41;22.40;99.90
22450;DHT22;11392;57.390;-2.468;2022-08-21T10:15:24;22.10;99.90
22450;DHT22;11392;57.390;-2.468;2022-08-21T10:20:45;22.20;99.90
22450;DHT22;11392;57.390;-2.468;2022-08-21T10:26:07;21.90;99.90
22450;DHT22;11392;57.390;-2.468;2022-08-21T10:36:41;20.90;99.90
22450;DHT22;11392;57.390;-2.468;2022-08-21T10:39:19;21.00;99.90
22450;DHT22;11392;57.390;-2.468;2022-08-21T10:42:08;21.20;99.90
22450;DHT22;11392;57.390;-2.468;2022-08-21T10:47:49;20.70;99.90
22450;DHT22;11392;57.390;-2.468;2022-08-21T10:50:42;20.20;99.90
22450;DHT22;11392;57.390;-2.468;2022-08-21T10:56:25;20.40;99.90
22450;DHT22;11392;57.390;-2.468;2022-08-21T11:10:10;22.10;99.90
22450;DHT22;11392;57.390;-2.468;2022-08-21T11:12:43;22.40;99.90
22450;DHT22;11392;57.390;-2.468;2022-08-21T11:15:43;22.90;99.90
22450;DHT22;11392;57.390;-2.468;2022-08-21T11:18:26;22.50;99.90
22450;DHT22;11392;57.390;-2.468;2022-08-21T11:23:53;22.50;99.90
22450;DHT22;11392;57.390;-2.468;2022-08-21T11:26:39;21.70;99.90
22450;DHT22;11392;57.390;-2.468;2022-08-21T11:35:13;21.00;99.90
22450;DHT22;11392;57.390;-2.468;2022-08-21T11:43:17;22.20;99.90
22450;DHT22;11392;57.390;-2.468;2022-08-21T11:46:08;22.80;99.90
22450;DHT22;11392;57.390;-2.468;2022-08-21T11:51:37;22.30;99.90
22450;DHT22;11392;57.390;-2.468;2022-08-21T11:57:07;21.10;99.90
22450;DHT22;11392;57.390;-2.468;2022-08-21T12:02:34;21.60;99.90
22450;DHT22;11392;57.390;-2.468;2022-08-21T12:05:11;21.90;99.90
22450;DHT22;11392;57.390;-2.468;2022-08-21T12:07:48;22.20;99.90
22450;DHT22;11392;57.390;-2.468;2022-08-21T12:10:34;22.40;99.90
22450;DHT22;11392;57.390;-2.468;2022-08-21T12:13:11;21.80;99.90
22450;DHT22;11392;57.390;-2.468;2022-08-21T12:15:40;21.60;99.90
22450;DHT22;11392;57.390;-2.468;2022-08-21T12:18:22;21.00;99.90
22450;DHT22;11392;57.390;-2.468;2022-08-21T12:26:52;21.40;99.90
22450;DHT22;11392;57.390;-2.468;2022-08-21T12:29:26;22.30;99.90
22450;DHT22;11392;57.390;-2.468;2022-08-21T12:34:24;23.40;99.90
22450;DHT22;11392;57.390;-2.468;2022-08-21T12:37:04;23.90;99.90
22450;DHT22;11392;57.390;-2.468;2022-08-21T12:39:35;24.50;99.90
22450;DHT22;11392;57.390;-2.468;2022-08-21T12:42:36;24.10;99.90
22450;DHT22;11392;57.390;-2.468;2022-08-21T12:45:15;23.70;99.90
22450;DHT22;11392;57.390;-2.468;2022-08-21T12:47:51;23.90;99.90
22450;DHT22;11392;57.390;-2.468;2022-08-21T12:50:38;23.60;99.90
22450;DHT22;11392;57.390;-2.468;2022-08-21T12:53:14;23.90;99.90
22450;DHT22;11392;57.390;-2.468;2022-08-21T12:55:46;24.20;99.90
22450;DHT22;11392;57.390;-2.468;2022-08-21T12:58:22;24.20;99.90
22450;DHT22;11392;57.390;-2.468;2022-08-21T13:01:06;23.60;99.90
22450;DHT22;11392;57.390;-2.468;2022-08-21T13:03:37;23.00;99.90
22450;DHT22;11392;57.390;-2.468;2022-08-21T13:06:05;22.50;99.90
22450;DHT22;11392;57.390;-2.468;2022-08-21T13:08:35;22.20;99.90
22450;DHT22;11392;57.390;-2.468;2022-08-21T13:11:09;21.70;99.90
22450;DHT22;11392;57.390;-2.468;2022-08-21T13:13:42;21.20;99.90
22450;DHT22;11392;57.390;-2.468;2022-08-21T13:16:12;21.00;99.90
22450;DHT22;11392;57.390;-2.468;2022-08-21T13:18:53;20.70;99.90
22450;DHT22;11392;57.390;-2.468;2022-08-21T13:21:21;20.40;99.90
22450;DHT22;11392;57.390;-2.468;2022-08-21T13:23:53;20.40;99.90
22450;DHT22;11392;57.390;-2.468;2022-08-21T13:26:21;20.50;99.90
22450;DHT22;11392;57.390;-2.468;2022-08-21T13:28:49;20.40;99.90
22450;DHT22;11392;57.390;-2.468;2022-08-21T13:31:20;20.00;99.90
22450;DHT22;11392;57.390;-2.468;2022-08-21T13:33:49;19.80;99.90
22450;DHT22;11392;57.390;-2.468;2022-08-21T13:36:35;20.30;99.90
22450;DHT22;11392;57.390;-2.468;2022-08-21T13:39:04;21.40;99.90
22450;DHT22;11392;57.390;-2.468;2022-08-21T13:41:38;22.20;99.90
22450;DHT22;11392;57.390;-2.468;2022-08-21T13:44:21;22.10;99.90
22450;DHT22;11392;57.390;-2.468;2022-08-21T13:46:49;22.40;99.90
22450;DHT22;11392;57.390;-2.468;2022-08-21T13:49:19;22.40;99.90
22450;DHT22;11392;57.390;-2.468;2022-08-21T13:51:48;22.30;99.90
22450;DHT22;11392;57.390;-2.468;2022-08-21T13:54:25;22.90;99.90
22450;DHT22;11392;57.390;-2.468;2022-08-21T13:56:54;23.30;99.90
22450;DHT22;11392;57.390;-2.468;2022-08-21T13:59:33;23.50;99.90
22450;DHT22;11392;57.390;-2.468;2022-08-21T14:02:10;23.90;99.90
22450;DHT22;11392;57.390;-2.468;2022-08-21T14:04:54;24.30;99.90
22450;DHT22;11392;57.390;-2.468;2022-08-21T14:07:30;25.10;99.90
22450;DHT22;11392;57.390;-2.468;2022-08-21T14:10:07;25.60;99.90
22450;DHT22;11392;57.390;-2.468;2022-08-21T14:12:47;25.60;99.90
22450;DHT22;11392;57.390;-2.468;2022-08-21T14:15:18;25.00;99.40
22450;DHT22;11392;57.390;-2.468;2022-08-21T14:17:45;24.30;99.40
22450;DHT22;11392;57.390;-2.468;2022-08-21T14:20:29;23.30;99.60
22450;DHT22;11392;57.390;-2.468;2022-08-21T14:22:56;22.40;99.90
22450;DHT22;11392;57.390;-2.468;2022-08-21T14:27:55;21.00;99.90
22450;DHT22;11392;57.390;-2.468;2022-08-21T14:30:32;20.60;99.90
22450;DHT22;11392;57.390;-2.468;2022-08-21T14:33:01;20.10;99.90
22450;DHT22;11392;57.390;-2.468;2022-08-21T14:35:29;19.80;99.90
22450;DHT22;11392;57.390;-2.468;2022-08-21T14:37:57;19.80;99.90
22450;DHT22;11392;57.390;-2.468;2022-08-21T14:40:24;19.70;99.90
22450;DHT22;11392;57.390;-2.468;2022-08-21T14:42:52;19.80;99.90
22450;DHT22;11392;57.390;-2.468;2022-08-21T14:45:26;19.80;99.90
22450;DHT22;11392;57.390;-2.468;2022-08-21T14:47:54;20.20;99.90
22450;DHT22;11392;57.390;-2.468;2022-08-21T14:50:21;20.40;99.90
22450;DHT22;11392;57.390;-2.468;2022-08-21T14:52:49;20.60;99.90
22450;DHT22;11392;57.390;-2.468;2022-08-21T14:55:17;21.40;99.90
22450;DHT22;11392;57.390;-2.468;2022-08-21T14:57:47;21.40;99.90
22450;DHT22;11392;57.390;-2.468;2022-08-21T15:00:17;21.20;99.90
22450;DHT22;11392;57.390;-2.468;2022-08-21T15:02:45;20.80;99.90
22450;DHT22;11392;57.390;-2.468;2022-08-21T15:05:15;20.70;99.90
22450;DHT22;11392;57.390;-2.468;2022-08-21T15:07:57;20.60;99.90
22450;DHT22;11392;57.390;-2.468;2022-08-21T15:10:24;20.50;99.90
22450;DHT22;11392;57.390;-2.468;2022-08-21T15:12:51;20.50;99.90
22450;DHT22;11392;57.390;-2.468;2022-08-21T15:15:18;20.40;99.90
22450;DHT22;11392;57.390;-2.468;2022-08-21T15:17:45;20.30;99.90
22450;DHT22;11392;57.390;-2.468;2022-08-21T15:20:14;20.40;99.90
22450;DHT22;11392;57.390;-2.468;2022-08-21T15:22:41;20.30;99.90
22450;DHT22;11392;57.390;-2.468;2022-08-21T15:25:14;20.30;99.90
22450;DHT22;11392;57.390;-2.468;2022-08-21T15:27:41;20.30;99.90
22450;DHT22;11392;57.390;-2.468;2022-08-21T15:30:08;20.30;99.90
22450;DHT22;11392;57.390;-2.468;2022-08-21T15:32:36;20.40;99.90
22450;DHT22;11392;57.390;-2.468;2022-08-21T15:35:05;20.50;99.90
22450;DHT22;11392;57.390;-2.468;2022-08-21T15:37:32;20.70;99.90
22450;DHT22;11392;57.390;-2.468;2022-08-21T15:39:59;20.90;99.90
22450;DHT22;11392;57.390;-2.468;2022-08-21T15:42:27;21.00;99.90
22450;DHT22;11392;57.390;-2.468;2022-08-21T15:44:55;21.20;99.90
22450;DHT22;11392;57.390;-2.468;2022-08-21T15:47:29;21.60;99.90
22450;DHT22;11392;57.390;-2.468;2022-08-21T15:49:57;21.90;99.90
22450;DHT22;11392;57.390;-2.468;2022-08-21T15:52:24;21.90;99.90
22450;DHT22;11392;57.390;-2.468;2022-08-21T15:54:51;21.70;99.90
22450;DHT22;11392;57.390;-2.468;2022-08-21T15:57:22;21.70;99.90
22450;DHT22;11392;57.390;-2.468;2022-08-21T15:59:54;21.80;99.90
22450;DHT22;11392;57.390;-2.468;2022-08-21T16:02:29;22.00;99.90
22450;DHT22;11392;57.390;-2.468;2022-08-21T16:04:57;22.40;99.90
22450;DHT22;11392;57.390;-2.468;2022-08-21T16:07:24;22.50;99.90
22450;DHT22;11392;57.390;-2.468;2022-08-21T16:09:51;22.40;99.90
22450;DHT22;11392;57.390;-2.468;2022-08-21T16:12:25;22.00;99.90
22450;DHT22;11392;57.390;-2.468;2022-08-21T16:14:54;21.60;99.90
22450;DHT22;11392;57.390;-2.468;2022-08-21T16:17:26;21.50;99.90
22450;DHT22;11392;57.390;-2.468;2022-08-21T16:19:54;21.20;99.90
22450;DHT22;11392;57.390;-2.468;2022-08-21T16:22:21;20.90;99.90
22450;DHT22;11392;57.390;-2.468;2022-08-21T16:24:48;20.70;99.90
22450;DHT22;11392;57.390;-2.468;2022-08-21T16:27:16;20.40;99.90
22450;DHT22;11392;57.390;-2.468;2022-08-21T16:29:45;20.10;99.90
22450;DHT22;11392;57.390;-2.468;2022-08-21T16:32:12;19.90;99.90
22450;DHT22;11392;57.390;-2.468;2022-08-21T16:34:44;19.80;99.90
22450;DHT22;11392;57.390;-2.468;2022-08-21T16:37:14;19.60;99.90
22450;DHT22;11392;57.390;-2.468;2022-08-21T16:39:50;19.40;99.90
22450;DHT22;11392;57.390;-2.468;2022-08-21T16:42:22;19.20;99.90
22450;DHT22;11392;57.390;-2.468;2022-08-21T16:44:49;18.90;99.90
22450;DHT22;11392;57.390;-2.468;2022-08-21T16:47:17;18.80;99.90
22450;DHT22;11392;57.390;-2.468;2022-08-21T16:49:53;18.60;99.90
22450;DHT22;11392;57.390;-2.468;2022-08-21T16:52:20;18.50;99.90
22450;DHT22;11392;57.390;-2.468;2022-08-21T16:54:47;18.30;99.90
22450;DHT22;11392;57.390;-2.468;2022-08-21T16:57:14;18.10;99.90
22450;DHT22;11392;57.390;-2.468;2022-08-21T16:59:41;18.10;99.90
22450;DHT22;11392;57.390;-2.468;2022-08-21T17:02:31;18.00;99.90
22450;DHT22;11392;57.390;-2.468;2022-08-21T17:04:58;17.90;99.90